createdAt,value
2022-08-07T00:02:36.883Z,13.7
2022-08-07T00:03:52.620Z,13.7
2022-08-07T00:05:56.565Z,13.7
2022-08-07T00:08:02.144Z,13.7
2022-08-07T00:10:25.593Z,13.7
2022-08-07T00:12:11.216Z,13.8
2022-08-07T00:14:15.168Z,13.7
2022-08-07T00:16:27.857Z,13.7
2022-08-07T00:18:24.635Z,13.6
2022-08-07T00:20:29.566Z,13.6
2022-08-07T00:22:35.061Z,13.6
2022-08-07T00:24:34.950Z,13.6
2022-08-07T00:30:49.625Z,13.6
2022-08-07T00:31:53.012Z,13.6
2022-08-07T00:33:56.964Z,13.6
2022-08-07T00:36:00.899Z,13.5
2022-08-07T00:38:04.860Z,13.5
2022-08-07T00:40:11.627Z,13.4
2022-08-07T00:42:15.584Z,13.3
2022-08-07T00:44:19.513Z,13.2
2022-08-07T00:46:23.475Z,13.3
2022-08-07T00:48:31.997Z,13.3
2022-08-07T00:50:46.355Z,13.3
2022-08-07T00:54:42.106Z,13.3
2022-08-07T00:56:46.247Z,13.3
2022-08-07T00:58:50.143Z,13.3
2022-08-07T01:05:01.848Z,13.2
2022-08-07T01:07:05.819Z,13.2
2022-08-07T01:10:04.608Z,13.2
2022-08-07T01:13:20.483Z,13.1
2022-08-07T01:15:35.670Z,13.1
2022-08-07T01:17:28.825Z,13
2022-08-07T01:19:32.944Z,13
2022-08-07T01:21:36.885Z,12.9
2022-08-07T01:23:46.557Z,12.9
2022-08-07T01:27:51.644Z,12.8
2022-08-07T01:28:54.710Z,12.9
2022-08-07T01:41:26.200Z,12.7
2022-08-07T01:45:36.848Z,12.6
2022-08-07T01:48:19.786Z,12.5
2022-08-07T01:49:37.311Z,12.5
2022-08-07T01:55:51.954Z,12.6
2022-08-07T01:59:59.936Z,12.6
2022-08-07T02:02:04.432Z,12.6
2022-08-07T02:06:30.958Z,12.5
2022-08-07T02:08:18.491Z,12.5
2022-08-07T02:10:22.446Z,12.6
2022-08-07T02:12:29.400Z,12.6
2022-08-07T02:14:36.277Z,12.6
2022-08-07T02:16:34.273Z,12.6
2022-08-07T02:18:38.206Z,12.6
2022-08-07T02:20:48.500Z,12.5
2022-08-07T02:22:54.974Z,12.5
2022-08-07T02:24:52.942Z,12.5
2022-08-07T02:27:16.794Z,12.4
2022-08-07T02:29:21.926Z,12.3
2022-08-07T02:31:28.186Z,12.4
2022-08-07T02:33:42.286Z,12.3
2022-08-07T02:36:29.407Z,12.2
2022-08-07T02:37:44.039Z,12.2
2022-08-07T02:40:02.085Z,12.1
2022-08-07T02:41:50.588Z,12.1
2022-08-07T02:43:51.091Z,12.1
2022-08-07T02:48:02.050Z,12.2
2022-08-07T02:50:05.818Z,12.1
2022-08-07T02:52:09.740Z,12.1
2022-08-07T02:54:13.693Z,12.1
2022-08-07T02:56:21.074Z,12
2022-08-07T02:58:21.882Z,12
2022-08-07T03:00:25.500Z,12
2022-08-07T03:02:32.471Z,12
2022-08-07T03:04:36.275Z,12
2022-08-07T03:06:40.227Z,11.9
2022-08-07T03:08:44.192Z,12
2022-08-07T03:12:52.129Z,11.9
2022-08-07T03:14:56.179Z,11.8
2022-08-07T03:17:04.472Z,11.8
2022-08-07T03:19:06.860Z,11.8
2022-08-07T03:21:11.390Z,11.8
2022-08-07T03:30:33.101Z,11.8
2022-08-07T03:32:37.145Z,11.8
2022-08-07T03:34:47.206Z,11.7
2022-08-07T03:36:45.099Z,11.7
2022-08-07T03:38:49.017Z,11.8
2022-08-07T03:40:53.801Z,11.8
2022-08-07T03:42:56.915Z,11.7
2022-08-07T03:45:03.803Z,11.6
2022-08-07T03:47:11.313Z,11.6
2022-08-07T03:49:13.352Z,11.6
2022-08-07T03:51:17.319Z,11.6
2022-08-07T03:54:01.975Z,11.5
2022-08-07T03:55:57.536Z,11.5
2022-08-07T03:58:35.294Z,11.5
2022-08-07T03:59:36.080Z,11.5
2022-08-07T04:01:40.146Z,11.4
2022-08-07T04:03:53.735Z,11.5
2022-08-07T04:07:51.860Z,11.5
2022-08-07T04:09:55.870Z,11.5
2022-08-07T04:12:23.724Z,11.5
2022-08-07T04:14:10.700Z,11.5
2022-08-07T04:16:10.898Z,11.5
2022-08-07T04:18:56.289Z,11.5
2022-08-07T04:19:18.433Z,11.5
2022-08-07T04:32:02.936Z,11.7
2022-08-07T04:33:54.999Z,11.6
2022-08-07T04:35:53.225Z,11.6
2022-08-07T04:38:02.912Z,11.7
2022-08-07T04:40:00.793Z,11.8
2022-08-07T04:42:07.470Z,11.8
2022-08-07T04:44:18.269Z,11.9
2022-08-07T04:46:20.134Z,11.9
2022-08-07T04:48:19.474Z,11.9
2022-08-07T04:50:23.498Z,12
2022-08-07T04:52:27.648Z,12.1
2022-08-07T04:54:31.377Z,12.2
2022-08-07T04:58:10.151Z,13.1
2022-08-07T05:00:46.235Z,15.1
2022-08-07T05:02:50.117Z,16.2
2022-08-07T05:04:54.056Z,16.7
2022-08-07T05:06:57.980Z,17
2022-08-07T05:09:02.491Z,17.2
2022-08-07T05:11:09.111Z,17.5
2022-08-07T05:14:54.050Z,17.7
2022-08-07T05:15:21.622Z,17.7
2022-08-07T05:18:23.892Z,18
2022-08-07T05:20:27.836Z,18.3
2022-08-07T05:22:31.792Z,16.9
2022-08-07T05:24:40.461Z,17.1
2022-08-07T05:26:42.537Z,17.5
2022-08-07T05:28:50.041Z,18.4
2022-08-07T05:30:50.453Z,19.3
2022-08-07T05:32:54.434Z,19.8
2022-08-07T05:34:58.370Z,19.8
2022-08-07T05:37:02.296Z,20.1
2022-08-07T05:40:14.346Z,20.3
2022-08-07T05:41:16.017Z,20.2
2022-08-07T05:45:46.099Z,20.5
2022-08-07T05:47:38.680Z,20.6
2022-08-07T05:49:40.746Z,21
2022-08-07T05:51:33.462Z,21.6
2022-08-07T05:54:13.791Z,20.4
2022-08-07T05:56:03.177Z,19.7
2022-08-07T05:57:47.497Z,17.5
2022-08-07T05:59:55.735Z,18.3
2022-08-07T06:01:55.466Z,19.8
2022-08-07T06:04:01.016Z,21.4
2022-08-07T06:06:03.330Z,22.2
2022-08-07T06:10:15.405Z,22.5
2022-08-07T06:12:17.962Z,21.3
2022-08-07T06:14:36.133Z,17.9
2022-08-07T06:16:40.070Z,17.4
2022-08-07T06:18:51.790Z,16.4
2022-08-07T06:22:11.611Z,15.8
2022-08-07T06:23:02.305Z,15.7
2022-08-07T06:25:01.585Z,15.7
2022-08-07T06:27:03.790Z,16.3
2022-08-07T06:33:16.534Z,20.8
2022-08-07T06:37:25.138Z,21.8
2022-08-07T06:40:16.309Z,22.2
2022-08-07T06:42:00.829Z,23
2022-08-07T06:43:39.869Z,23.8
2022-08-07T06:47:56.994Z,23.9
2022-08-07T06:51:59.422Z,24.7
2022-08-07T06:55:27.819Z,23.9
2022-08-07T06:58:10.353Z,24.8
2022-08-07T07:00:18.181Z,24.7
2022-08-07T07:02:14.912Z,24.6
2022-08-07T07:04:31.027Z,24.3
2022-08-07T07:06:26.522Z,24.3
2022-08-07T07:08:29.583Z,23.7
2022-08-07T07:09:32.718Z,24.8
2022-08-07T07:12:08.991Z,24.6
2022-08-07T07:13:40.630Z,23.4
2022-08-07T07:15:44.250Z,23.8
2022-08-07T07:17:52.357Z,25.6
2022-08-07T07:19:58.317Z,26.1
2022-08-07T07:22:12.229Z,25.8
2022-08-07T07:24:08.735Z,26.2
2022-08-07T07:26:33.921Z,25.5
2022-08-07T07:30:13.959Z,24.9
2022-08-07T07:32:20.666Z,24.5
2022-08-07T07:34:30.551Z,24.8
2022-08-07T07:36:32.430Z,24.5
2022-08-07T07:38:32.098Z,24
2022-08-07T07:40:35.929Z,23.6
2022-08-07T07:44:43.553Z,22.9
2022-08-07T07:46:56.053Z,22.6
2022-08-07T07:49:00.161Z,22.7
2022-08-07T07:53:01.667Z,22.8
2022-08-07T07:55:05.478Z,23.2
2022-08-07T07:57:09.301Z,23.1
2022-08-07T07:59:13.132Z,22.9
2022-08-07T08:04:09.506Z,22.3
2022-08-07T08:05:42.676Z,22.3
2022-08-07T08:08:37.058Z,21.9
2022-08-07T08:10:38.980Z,21.9
2022-08-07T08:12:52.459Z,22
2022-08-07T08:14:48.894Z,22.7
2022-08-07T08:16:52.719Z,22.1
2022-08-07T08:18:56.539Z,22
2022-08-07T08:21:00.365Z,22.3
2022-08-07T08:23:04.146Z,21.4
2022-08-07T08:25:25.155Z,21.8
2022-08-07T08:29:18.408Z,21.7
2022-08-07T08:33:28.865Z,22.3
2022-08-07T08:38:00.295Z,21
2022-08-07T08:39:39.373Z,21.1
2022-08-07T08:47:55.455Z,22.8
2022-08-07T08:50:05.205Z,23.5
2022-08-07T08:54:06.905Z,23.2
2022-08-07T09:02:34.725Z,23.2
2022-08-07T09:05:36.755Z,22.6
2022-08-07T09:07:46.430Z,22.5
2022-08-07T09:09:39.492Z,22.6
2022-08-07T09:17:59.462Z,25
2022-08-07T09:26:17.163Z,24.4
2022-08-07T09:32:26.709Z,23.2
2022-08-07T09:36:37.063Z,24
2022-08-07T09:40:44.552Z,23.9
2022-08-07T09:42:50.305Z,24.2
2022-08-07T09:47:49.910Z,23.9
2022-08-07T09:50:01.739Z,23.6
2022-08-07T09:51:05.439Z,24.3
2022-08-07T09:53:08.636Z,24
2022-08-07T09:55:16.872Z,24.4
2022-08-07T09:57:19.060Z,24.9
2022-08-07T09:59:24.086Z,25.1
2022-08-07T10:01:51.042Z,25.6
2022-08-07T10:04:05.692Z,25.7
2022-08-07T10:06:00.292Z,25.7
2022-08-07T10:08:01.237Z,25
2022-08-07T10:10:04.640Z,25.3
2022-08-07T10:12:16.685Z,25
2022-08-07T10:14:12.189Z,25.1
2022-08-07T10:16:15.910Z,24.4
2022-08-07T10:18:19.855Z,23.5
2022-08-07T10:20:31.894Z,24.1
2022-08-07T10:22:33.804Z,23.2
2022-08-07T10:24:39.707Z,23.1
2022-08-07T10:26:37.636Z,23.3
2022-08-07T10:28:41.429Z,24.2
2022-08-07T10:30:45.239Z,23.2
2022-08-07T10:32:52.794Z,22.5
2022-08-07T10:34:52.844Z,22.4
2022-08-07T10:36:59.543Z,23.2
2022-08-07T10:39:04.511Z,23.7
2022-08-07T10:41:07.175Z,24.3
2022-08-07T10:43:10.991Z,25.3
2022-08-07T10:45:14.845Z,24.5
2022-08-07T10:47:18.647Z,25.2
2022-08-07T10:49:24.577Z,25.2
2022-08-07T10:51:57.480Z,25.5
2022-08-07T10:56:40.143Z,26
2022-08-07T10:58:46.224Z,25
2022-08-07T11:00:55.852Z,24.5
2022-08-07T11:02:53.907Z,23.9
2022-08-07T11:04:58.555Z,23.3
2022-08-07T11:07:02.389Z,23.2
2022-08-07T11:09:11.314Z,23
2022-08-07T11:13:42.259Z,24.4
2022-08-07T11:15:17.886Z,24.9
2022-08-07T11:25:42.532Z,26.3
2022-08-07T11:28:01.430Z,26.7
2022-08-07T11:29:48.355Z,26.6
2022-08-07T11:31:51.844Z,26.6
2022-08-07T11:34:00.242Z,26.3
2022-08-07T11:36:02.093Z,26.7
2022-08-07T11:38:10.177Z,28.3
2022-08-07T11:40:09.182Z,28.3
2022-08-07T11:42:18.657Z,28.4
2022-08-07T11:44:18.621Z,28.7
2022-08-07T11:46:20.434Z,29.4
2022-08-07T11:48:29.815Z,29.5
2022-08-07T11:50:32.604Z,29.2
2022-08-07T11:52:35.819Z,28.3
2022-08-07T11:53:37.879Z,28.1
2022-08-07T11:56:15.754Z,27.7
2022-08-07T11:57:57.779Z,27.6
2022-08-07T12:00:10.444Z,28.7
2022-08-07T12:01:59.891Z,29.7
2022-08-07T12:03:59.503Z,30
2022-08-07T12:06:39.716Z,29.8
2022-08-07T12:08:06.881Z,29.9
2022-08-07T12:10:10.595Z,29.8
2022-08-07T12:12:15.352Z,30.4
2022-08-07T12:14:19.312Z,29.7
2022-08-07T12:16:30.119Z,28.8
2022-08-07T12:18:29.669Z,28.9
2022-08-07T12:20:33.126Z,29.9
2022-08-07T12:22:55.864Z,29.7
2022-08-07T12:24:40.505Z,28.3
2022-08-07T12:26:47.012Z,29.5
2022-08-07T12:28:49.610Z,31
2022-08-07T12:30:54.431Z,30.9
2022-08-07T12:32:58.138Z,30.6
2022-08-07T12:35:01.891Z,30.6
2022-08-07T12:37:08.740Z,30.4
2022-08-07T12:39:42.052Z,29
2022-08-07T12:41:13.025Z,29.3
2022-08-07T12:44:02.943Z,29.6
2022-08-07T12:45:23.275Z,31.9
2022-08-07T12:47:30.870Z,31.6
2022-08-07T12:49:44.188Z,28.9
2022-08-07T12:50:40.245Z,27.1
2022-08-07T12:52:37.672Z,26.5
2022-08-07T12:54:41.445Z,25.9
2022-08-07T12:56:51.199Z,25.7
2022-08-07T12:58:53.253Z,25.2
2022-08-07T13:00:56.831Z,25.6
2022-08-07T13:02:59.224Z,28.2
2022-08-07T13:05:02.967Z,30.1
2022-08-07T13:07:06.728Z,30.6
2022-08-07T13:10:10.928Z,31.4
2022-08-07T13:11:16.231Z,31.2
2022-08-07T13:15:29.758Z,31
2022-08-07T13:17:39.998Z,31.2
2022-08-07T13:21:50.583Z,31.4
2022-08-07T13:24:02.222Z,29.6
2022-08-07T13:25:43.445Z,31.1
2022-08-07T13:28:12.622Z,30.8
2022-08-07T13:29:53.820Z,31.4
2022-08-07T13:32:06.193Z,31.9
2022-08-07T13:34:31.829Z,30.8
2022-08-07T13:36:05.393Z,31.5
2022-08-07T13:38:08.811Z,30
2022-08-07T13:42:21.433Z,28.7
2022-08-07T13:44:25.806Z,28.7
2022-08-07T13:46:31.339Z,28.8
2022-08-07T13:48:59.466Z,27.3
2022-08-07T13:51:01.910Z,27.1
2022-08-07T13:53:03.696Z,27
2022-08-07T13:55:10.773Z,25.3
2022-08-07T13:57:23.888Z,25
2022-08-07T13:59:17.825Z,25
2022-08-07T14:01:22.043Z,25.3
2022-08-07T14:03:29.902Z,25.4
2022-08-07T14:05:38.059Z,24.9
2022-08-07T14:07:33.474Z,25.2
2022-08-07T14:10:00.927Z,25.7
2022-08-07T14:11:53.579Z,25.8
2022-08-07T14:13:47.211Z,25
2022-08-07T14:20:42.384Z,24.4
2022-08-07T14:32:26.678Z,24.2
2022-08-07T14:38:39.791Z,25.2
2022-08-07T14:40:49.560Z,25.1
2022-08-07T14:43:00.829Z,24.9
2022-08-07T14:43:55.693Z,25.1
2022-08-07T14:45:54.852Z,25.2
2022-08-07T14:47:59.145Z,25.4
2022-08-07T14:50:02.461Z,25.5
2022-08-07T14:52:10.452Z,25.5
2022-08-07T14:54:31.168Z,25.5
2022-08-07T14:56:29.898Z,24.8
2022-08-07T15:00:30.461Z,24.5
2022-08-07T15:04:32.308Z,24.4
2022-08-07T15:06:39.041Z,25.1
2022-08-07T15:08:49.757Z,25.3
2022-08-07T15:12:54.794Z,25.3
2022-08-07T15:14:57.711Z,25.2
2022-08-07T15:17:00.528Z,25.7
2022-08-07T15:21:59.463Z,25.6
2022-08-07T15:25:19.283Z,24.9
2022-08-07T15:27:20.569Z,24.8
2022-08-07T15:30:06.580Z,24.7
2022-08-07T15:36:01.407Z,24.6
2022-08-07T15:39:57.852Z,24.5
2022-08-07T15:42:55.372Z,24
2022-08-07T15:51:13.694Z,24.8
2022-08-07T16:01:38.535Z,24
2022-08-07T16:03:47.073Z,24
2022-08-07T16:05:43.741Z,23.9
2022-08-07T16:08:33.707Z,23.7
2022-08-07T16:09:51.524Z,23.5
2022-08-07T16:11:55.414Z,23.5
2022-08-07T16:14:02.867Z,23.5
2022-08-07T16:18:09.946Z,23.3
2022-08-07T16:20:34.162Z,23.3
2022-08-07T16:22:33.355Z,23.3
2022-08-07T16:24:33.723Z,23.1
2022-08-07T16:26:30.665Z,23.2
2022-08-07T16:30:08.755Z,23.2
2022-08-07T16:32:46.370Z,22.9
2022-08-07T16:34:45.387Z,22.7
2022-08-07T16:38:03.966Z,22.6
2022-08-07T16:39:55.249Z,22.7
2022-08-07T16:41:59.068Z,22.7
2022-08-07T16:44:40.214Z,22.6
2022-08-07T16:47:04.591Z,22.7
2022-08-07T16:48:13.798Z,22.6
2022-08-07T16:50:35.767Z,22.4
2022-08-07T16:52:51.030Z,22.6
2022-08-07T16:54:32.810Z,22.7
2022-08-07T16:56:29.322Z,22.8
2022-08-07T16:58:54.322Z,22.7
2022-08-07T17:00:40.283Z,22.7
2022-08-07T17:02:51.106Z,22.7
2022-08-07T17:04:57.555Z,22.7
2022-08-07T17:06:58.056Z,22.6
2022-08-07T17:09:10.943Z,22.8
2022-08-07T17:10:59.594Z,22.8
2022-08-07T17:13:03.619Z,22.9
2022-08-07T17:15:10.251Z,22.8
2022-08-07T17:17:14.174Z,22.7
2022-08-07T17:19:18.095Z,22.6
2022-08-07T17:21:23.011Z,22.6
2022-08-07T17:23:31.845Z,22.7
2022-08-07T17:25:47.472Z,22.7
2022-08-07T17:27:34.273Z,22.6
2022-08-07T17:32:03.378Z,22.5
2022-08-07T17:34:17.938Z,22.4
2022-08-07T17:36:13.606Z,22.4
2022-08-07T17:40:20.070Z,22.3
2022-08-07T17:59:01.006Z,23.6
2022-08-07T18:01:17.984Z,23.2
2022-08-07T18:03:09.322Z,22.6
2022-08-07T18:05:21.752Z,22.4
2022-08-07T18:07:20.898Z,22.1
2022-08-07T18:10:04.631Z,21.7
2022-08-07T18:13:40.716Z,21.4
2022-08-07T18:21:10.626Z,21.2
2022-08-07T18:23:56.597Z,21
2022-08-07T18:28:01.665Z,20.8
2022-08-07T18:31:08.972Z,20.8
2022-08-07T18:33:15.186Z,20.8
2022-08-07T18:35:16.875Z,20.7
2022-08-07T18:38:59.589Z,20.7
2022-08-07T18:41:45.059Z,20.6
2022-08-07T18:43:42.928Z,20.5
2022-08-07T18:45:39.962Z,20.5
2022-08-07T18:47:45.133Z,20.4
2022-08-07T18:50:30.761Z,20.3
2022-08-07T18:52:34.835Z,20.2
2022-08-07T19:06:21.761Z,19.8
2022-08-07T19:08:28.559Z,19.7
2022-08-07T19:10:49.806Z,19.7
2022-08-07T19:12:36.505Z,19.7
2022-08-07T19:17:07.686Z,19.5
2022-08-07T19:18:48.374Z,19.4
2022-08-07T19:21:09.176Z,19.4
2022-08-07T19:23:01.964Z,19.3
2022-08-07T19:25:05.801Z,19.2
2022-08-07T19:28:58.566Z,19.2
2022-08-07T19:38:33.015Z,18.9
2022-08-07T19:40:37.004Z,18.8
2022-08-07T19:42:42.922Z,18.8
2022-08-07T19:44:44.920Z,18.7
2022-08-07T19:48:53.606Z,18.6
2022-08-07T19:54:35.262Z,18.5
2022-08-07T19:55:10.864Z,18.5
2022-08-07T19:58:04.779Z,18.3
2022-08-07T19:59:15.460Z,18.3
2022-08-07T20:01:19.415Z,18.2
2022-08-07T20:03:33.654Z,18.2
2022-08-07T20:05:30.176Z,18.2
2022-08-07T20:07:46.204Z,18.2
2022-08-07T20:10:36.797Z,18.2
2022-08-07T20:12:22.928Z,18.2
2022-08-07T20:13:46.182Z,18.1
2022-08-07T20:15:49.983Z,18.1
2022-08-07T20:18:01.709Z,18
2022-08-07T20:20:00.799Z,17.9
2022-08-07T20:22:06.544Z,17.8
2022-08-07T20:24:08.684Z,17.7
2022-08-07T20:25:19.418Z,17.7
2022-08-07T20:27:16.035Z,17.7
2022-08-07T20:29:49.433Z,17.7
2022-08-07T20:31:23.985Z,17.7
2022-08-07T20:33:37.984Z,17.6
2022-08-07T20:35:34.726Z,17.5
2022-08-07T20:37:55.790Z,17.5
2022-08-07T20:40:03.805Z,17.5
2022-08-07T20:41:46.614Z,17.4
2022-08-07T20:43:50.564Z,17.5
2022-08-07T20:46:26.007Z,17.4
2022-08-07T20:48:01.328Z,17.3
2022-08-07T20:50:05.303Z,17.3
2022-08-07T20:52:14.099Z,17.2
2022-08-07T20:54:15.320Z,17.2
2022-08-07T20:56:20.115Z,17.1
2022-08-07T20:58:26.742Z,17
2022-08-07T21:00:25.093Z,17
2022-08-07T21:02:31.969Z,17
2022-08-07T21:04:35.888Z,17
2022-08-07T21:06:46.623Z,16.9
2022-08-07T21:12:51.726Z,16.8
2022-08-07T21:14:55.656Z,16.6
2022-08-07T21:18:01.094Z,16.6
2022-08-07T21:19:06.433Z,16.7
2022-08-07T21:25:44.014Z,16.5
2022-08-07T21:32:47.459Z,16.5
2022-08-07T21:34:02.709Z,16.5
2022-08-07T21:38:10.611Z,16.4
2022-08-07T21:40:16.186Z,16.3
2022-08-07T21:42:42.020Z,16.3
2022-08-07T21:44:30.205Z,16.2
2022-08-07T21:48:38.466Z,16.2
2022-08-07T21:50:38.694Z,16.2
2022-08-07T21:52:42.643Z,16.2
2022-08-07T21:54:48.343Z,16.1
2022-08-07T21:56:52.016Z,16
2022-08-07T21:58:57.368Z,16
2022-08-07T22:01:01.321Z,15.9
2022-08-07T22:03:06.188Z,15.9
2022-08-07T22:05:12.300Z,15.9
2022-08-07T22:09:17.145Z,15.8
2022-08-07T22:11:21.096Z,15.8
2022-08-07T22:13:52.102Z,15.8
2022-08-07T22:16:38.397Z,15.7
2022-08-07T22:17:36.794Z,15.7
2022-08-07T22:18:39.175Z,15.6
2022-08-07T22:20:43.165Z,15.6
2022-08-07T22:22:47.118Z,15.7
2022-08-07T22:24:51.141Z,15.7
2022-08-07T22:26:57.861Z,15.6
2022-08-07T22:29:01.810Z,15.6
2022-08-07T22:31:05.784Z,15.5
2022-08-07T22:35:13.692Z,15.4
2022-08-07T22:37:17.639Z,15.4
2022-08-07T22:39:23.558Z,15.3
2022-08-07T22:41:29.178Z,15.2
2022-08-07T22:43:33.953Z,15.2
2022-08-07T22:46:21.701Z,15.2
2022-08-07T22:47:40.303Z,15.2
2022-08-07T22:49:54.191Z,15.2
2022-08-07T22:51:49.288Z,15.2
2022-08-07T22:54:07.331Z,15.1
2022-08-07T22:55:59.005Z,15.2
2022-08-07T22:58:02.931Z,15.1
2022-08-07T23:00:06.890Z,15
2022-08-07T23:02:11.034Z,14.9
2022-08-07T23:04:16.405Z,14.9
2022-08-07T23:06:18.760Z,15
2022-08-07T23:08:24.184Z,15
2022-08-07T23:10:37.844Z,14.9
2022-08-07T23:12:34.120Z,14.9
2022-08-07T23:14:37.435Z,14.9
2022-08-07T23:17:45.167Z,14.9
2022-08-07T23:19:51.954Z,14.8
2022-08-07T23:21:52.694Z,14.8
2022-08-07T23:24:07.067Z,14.7
2022-08-07T23:26:03.434Z,14.7
2022-08-07T23:28:21.491Z,14.7
2022-08-07T23:30:39.456Z,14.6
2022-08-07T23:34:21.642Z,14.6
2022-08-07T23:34:22.989Z,14.5
2022-08-07T23:36:29.216Z,14.5
2022-08-07T23:38:36.893Z,14.5
2022-08-07T23:40:33.954Z,14.5
2022-08-07T23:42:37.946Z,14.5
2022-08-07T23:44:41.888Z,14.5
2022-08-07T23:46:45.864Z,14.4
2022-08-07T23:48:49.808Z,14.4
2022-08-07T23:50:54.481Z,14.4
2022-08-07T23:53:08.318Z,14.4
2022-08-07T23:55:04.758Z,14.4
2022-08-07T23:57:09.418Z,14.3
